Time;durP1;ratioP1;P1;durP2;ratioP2;P2;SDS_P1;SDS_P2;PMS_P1;PMS_P2;Temp;Humidity;BMP_temperature;BMP_pressure;BME280_temperature;BME280_humidity;BME280_pressure;Samples;Min_cycle;Max_cycle;Signal;HPM_P1;HPM_P2
2022/11/05 00:10:18;;;;;;;6.28;5.68;;;;;;;9.62;100.00;98373.34;4168810;28;20654;-48
2022/11/05 00:17:00;;;;;;;5.05;4.55;;;;;;;9.59;100.00;98373.84;4171041;28;20607;-48
2022/11/05 00:19:08;;;;;;;7.47;5.13;;;;;;;9.54;100.00;98379.22;4153968;28;20211;-48
2022/11/05 00:25:59;;;;;;;4.65;4.18;;;;;;;9.47;100.00;98378.53;4171637;28;20769;-48
2022/11/05 00:28:01;;;;;;;4.43;4.03;;;;;;;9.51;100.00;98387.91;4155764;28;20324;-49
2022/11/05 00:30:03;;;;;;;4.18;3.78;;;;;;;9.55;100.00;98386.34;4168969;28;20215;-49
2022/11/05 00:32:05;;;;;;;3.75;3.42;;;;;;;9.53;100.00;98388.47;4171408;28;20417;-48
2022/11/05 00:34:07;;;;;;;4.28;3.92;;;;;;;9.55;100.00;98389.88;4172771;28;20231;-48
2022/11/05 00:36:10;;;;;;;5.38;4.65;;;;;;;9.53;100.00;98388.47;4173195;28;20314;-48
2022/11/05 00:38:12;;;;;;;5.63;5.00;;;;;;;9.50;100.00;98399.91;4174534;28;20299;-49
2022/11/05 00:40:14;;;;;;;3.83;3.53;;;;;;;9.49;100.00;98399.06;4152883;28;20766;-48
2022/11/05 00:49:28;;;;;;;4.38;4.07;;;;;;;9.48;100.00;98402.06;4174688;28;20585;-48
2022/11/05 00:49:29;;;;;;;3.92;3.60;;;;;;;9.50;100.00;98413.56;4172957;28;20705;-48
2022/11/05 00:51:33;;;;;;;5.13;4.63;;;;;;;9.45;100.00;98414.31;4143314;28;20256;-49
2022/11/05 00:53:35;;;;;;;4.68;4.28;;;;;;;9.47;100.00;98411.31;4170261;28;20577;-49
2022/11/05 00:55:43;;;;;;;6.85;5.85;;;;;;;9.43;100.00;98415.63;4152737;28;20205;-48
2022/11/05 00:57:45;;;;;;;5.80;5.25;;;;;;;9.52;100.00;98416.88;4157629;28;20291;-48
2022/11/05 00:59:47;;;;;;;5.90;5.32;;;;;;;9.54;100.00;98417.47;4175078;28;20231;-50
2022/11/05 01:01:48;;;;;;;5.00;4.57;;;;;;;9.49;100.00;98420.09;4173037;28;20286;-49
2022/11/05 01:03:50;;;;;;;5.95;4.38;;;;;;;9.60;100.00;98424.66;4170462;28;20215;-48
2022/11/05 01:06:00;;;;;;;4.72;4.32;;;;;;;9.51;100.00;98420.66;4171569;28;20220;-49
2022/11/05 01:08:01;;;;;;;4.20;3.85;;;;;;;9.49;100.00;98428.28;4157740;28;20212;-48
2022/11/05 01:10:03;;;;;;;4.53;4.10;;;;;;;9.52;100.00;98430.53;4170677;28;20255;-49
2022/11/05 01:12:05;;;;;;;4.03;3.72;;;;;;;9.49;100.00;98431.03;4154199;28;20633;-48
2022/11/05 01:14:09;;;;;;;3.60;3.25;;;;;;;9.53;100.00;98432.16;4174036;28;20225;-48
2022/11/05 01:16:11;;;;;;;4.30;4.00;;;;;;;9.51;100.00;98432.44;4171734;28;20596;-48
2022/11/05 01:18:13;;;;;;;5.75;4.53;;;;;;;9.47;100.00;98428.53;4156028;28;20207;-48
2022/11/05 01:20:15;;;;;;;5.10;4.70;;;;;;;9.50;100.00;98438.13;4170221;28;20207;-49
2022/11/05 01:22:17;;;;;;;4.82;4.03;;;;;;;9.45;100.00;98440.78;4156717;28;20571;-48
2022/11/05 01:24:18;;;;;;;4.47;4.07;;;;;;;9.47;100.00;98441.34;4152279;28;20208;-49
2022/11/05 01:26:20;;;;;;;4.20;3.83;;;;;;;9.48;100.00;98441.09;4172151;28;20220;-49
2022/11/05 01:28:22;;;;;;;3.78;3.47;;;;;;;9.57;100.00;98449.75;4150468;28;20216;-49
2022/11/05 01:30:23;;;;;;;3.88;3.58;;;;;;;9.48;100.00;98443.84;4153899;28;20208;-48
2022/11/05 01:32:25;;;;;;;4.32;3.92;;;;;;;9.42;100.00;98452.19;4149517;28;20249;-50
2022/11/05 01:34:27;;;;;;;5.97;4.05;;;;;;;9.43;100.00;98451.94;4156540;28;20200;-49
2022/11/05 01:36:29;;;;;;;3.97;3.67;;;;;;;9.48;100.00;98452.03;4134015;28;20249;-48
2022/11/05 01:38:30;;;;;;;7.03;5.05;;;;;;;9.51;100.00;98451.56;4158358;28;20209;-49
2022/11/05 01:40:32;;;;;;;4.40;3.72;;;;;;;9.47;100.00;98453.09;4172513;28;20387;-49
2022/11/05 01:42:34;;;;;;;4.63;4.22;;;;;;;9.38;100.00;98462.78;4156775;28;20319;-48
2022/11/05 01:44:56;;;;;;;4.20;3.22;;;;;;;9.42;100.00;98457.66;4171177;28;20239;-48
2022/11/05 01:46:58;;;;;;;3.83;3.53;;;;;;;9.32;100.00;98468.38;4158275;28;20358;-50
2022/11/05 01:49:09;;;;;;;3.00;2.80;;;;;;;9.30;100.00;98465.06;4156981;28;20638;-49
2022/11/05 01:51:15;;;;;;;2.92;2.72;;;;;;;9.33;100.00;98470.03;4169648;28;20709;-48
2022/11/05 01:53:42;;;;;;;1.95;1.85;;;;;;;9.26;100.00;98470.19;4155153;28;20197;-49
2022/11/05 01:55:53;;;;;;;2.78;2.38;;;;;;;9.23;100.00;98480.75;4137338;28;20283;-50
2022/11/05 01:57:57;;;;;;;2.40;2.20;;;;;;;9.18;100.00;98478.75;4154746;28;20208;-48
2022/11/05 02:00:01;;;;;;;2.55;2.35;;;;;;;9.26;100.00;98474.78;4167367;28;20760;-49
2022/11/05 02:02:03;;;;;;;2.10;1.90;;;;;;;9.19;100.00;98487.75;4152820;28;20271;-49
2022/11/05 02:04:08;;;;;;;1.67;1.58;;;;;;;9.18;100.00;98486.09;4167446;28;20215;-49
2022/11/05 02:06:10;;;;;;;1.70;1.60;;;;;;;9.17;100.00;98487.19;4150229;28;20239;-49
2022/11/05 02:08:16;;;;;;;3.83;2.50;;;;;;;9.23;100.00;98486.22;4171539;28;20207;-49
2022/11/05 02:10:19;;;;;;;2.45;2.20;;;;;;;9.15;100.00;98494.78;4155601;28;20493;-49
2022/11/05 02:12:22;;;;;;;2.90;2.70;;;;;;;9.15;100.00;98500.25;4154325;28;20258;-48
2022/11/05 02:14:24;;;;;;;5.05;3.33;;;;;;;9.19;100.00;98490.50;4152383;28;20211;-48
2022/11/05 02:17:01;;;;;;;3.25;2.95;;;;;;;9.14;100.00;98501.31;4149244;28;20343;-48
2022/11/05 02:19:27;;;;;;;2.90;2.65;;;;;;;9.10;100.00;98497.41;4153814;28;20215;-49
2022/11/05 02:21:51;;;;;;;1.98;1.88;;;;;;;9.05;100.00;98495.41;4153173;28;20224;-48
2022/11/05 02:24:10;;;;;;;2.22;2.10;;;;;;;9.14;100.00;98493.94;4168496;28;20322;-48
2022/11/05 02:26:33;;;;;;;1.63;1.52;;;;;;;8.97;100.00;98498.50;4148956;28;20736;-47
2022/11/05 02:29:12;;;;;;;1.73;1.63;;;;;;;9.01;100.00;98493.41;4154081;28;20214;-48
2022/11/05 02:31:19;;;;;;;1.67;1.58;;;;;;;9.05;100.00;98500.03;4151385;28;20221;-48
2022/11/05 02:33:40;;;;;;;5.88;1.70;;;;;;;9.03;100.00;98496.72;4166790;28;20295;-49
2022/11/05 02:35:54;;;;;;;1.48;1.38;;;;;;;9.02;100.00;98497.78;4168534;28;20554;-48
2022/11/05 02:38:08;;;;;;;1.48;1.45;;;;;;;9.09;100.00;98503.94;4169003;28;20222;-48
2022/11/05 02:40:12;;;;;;;2.95;2.75;;;;;;;9.08;100.00;98502.28;4153216;28;20204;-48
2022/11/05 02:42:51;;;;;;;1.85;1.40;;;;;;;8.98;100.00;98515.69;4169478;28;20242;-49
2022/11/05 02:45:00;;;;;;;2.08;1.88;;;;;;;9.02;100.00;98514.16;4169931;28;20206;-48
2022/11/05 02:47:29;;;;;;;1.55;1.38;;;;;;;9.03;100.00;98513.09;4148257;28;20217;-48
2022/11/05 02:49:38;;;;;;;1.67;1.58;;;;;;;8.93;100.00;98515.59;4150036;28;20773;-47
2022/11/05 02:51:48;;;;;;;2.72;2.53;;;;;;;8.97;100.00;98520.34;4165724;28;20314;-50
2022/11/05 02:54:16;;;;;;;1.38;1.27;;;;;;;9.06;100.00;98518.06;4151864;28;20291;-48
2022/11/05 02:56:23;;;;;;;1.60;1.50;;;;;;;9.06;100.00;98523.50;4150503;28;20646;-48
2022/11/05 02:58:29;;;;;;;2.53;1.85;;;;;;;8.94;100.00;98523.53;4150227;28;20243;-48
2022/11/05 03:00:50;;;;;;;3.38;1.73;;;;;;;8.91;100.00;98526.75;4151284;28;20251;-49
2022/11/05 03:02:52;;;;;;;1.77;1.45;;;;;;;8.88;100.00;98526.41;4151100;28;20312;-49
2022/11/05 03:04:54;;;;;;;1.88;1.77;;;;;;;8.85;100.00;98535.91;4154596;28;20201;-48
2022/11/05 03:07:14;;;;;;;2.13;1.90;;;;;;;8.74;100.00;98535.91;4153567;28;20228;-48
2022/11/05 03:09:29;;;;;;;1.55;1.45;;;;;;;8.89;100.00;98547.16;4151388;28;20235;-48
2022/11/05 03:11:34;;;;;;;1.73;1.50;;;;;;;8.79;100.00;98542.31;4151177;28;20256;-48
2022/11/05 03:13:39;;;;;;;2.15;1.63;;;;;;;8.80;100.00;98551.31;4167854;28;20676;-48
2022/11/05 03:15:56;;;;;;;2.38;1.92;;;;;;;8.82;100.00;98544.53;4171349;28;20208;-48
2022/11/05 03:18:12;;;;;;;4.95;3.30;;;;;;;8.79;100.00;98555.09;4153909;28;20215;-47
2022/11/05 03:20:28;;;;;;;1.77;1.63;;;;;;;8.72;100.00;98548.94;4153558;28;20662;-49
2022/11/05 03:22:35;;;;;;;1.85;1.75;;;;;;;8.75;100.00;98560.19;4169360;28;20231;-51
2022/11/05 03:24:41;;;;;;;1.40;1.38;;;;;;;8.77;100.00;98563.56;4153377;28;20213;-48
2022/11/05 03:26:55;;;;;;;1.63;1.50;;;;;;;8.74;100.00;98565.91;4155248;28;20235;-48
2022/11/05 03:29:05;;;;;;;1.52;1.42;;;;;;;8.80;100.00;98559.47;4159411;28;20635;-48
2022/11/05 03:31:07;;;;;;;1.35;1.25;;;;;;;8.75;100.00;98562.13;4154185;28;20213;-48
2022/11/05 03:33:17;;;;;;;3.13;2.08;;;;;;;8.80;100.00;98567.66;4167436;28;20299;-48
2022/11/05 03:35:31;;;;;;;1.60;1.38;;;;;;;8.71;100.00;98569.09;4152642;28;20954;-49
2022/11/05 03:37:36;;;;;;;1.67;1.58;;;;;;;8.82;100.00;98571.81;4170570;28;20243;-48
2022/11/05 03:39:42;;;;;;;1.40;1.30;;;;;;;8.70;100.00;98562.00;4170856;28;20259;-49
2022/11/05 03:41:46;;;;;;;1.85;1.75;;;;;;;8.67;100.00;98574.19;4155506;28;20709;-48
2022/11/05 03:43:50;;;;;;;1.42;1.33;;;;;;;8.77;100.00;98573.63;4151591;28;20232;-48
2022/11/05 03:46:01;;;;;;;1.52;1.42;;;;;;;8.73;100.00;98583.31;4153122;28;20291;-49
2022/11/05 03:48:04;;;;;;;1.40;1.27;;;;;;;8.82;100.00;98587.38;4171035;28;20510;-49
2022/11/05 03:50:14;;;;;;;1.40;1.30;;;;;;;8.79;100.00;98587.84;4135394;28;20244;-49
2022/11/05 03:52:19;;;;;;;1.40;1.30;;;;;;;8.63;100.00;98588.56;4170813;28;20272;-48
2022/11/05 03:54:21;;;;;;;1.33;1.23;;;;;;;8.67;100.00;98589.72;4168267;28;20669;-49
2022/11/05 03:56:29;;;;;;;2.95;1.77;;;;;;;8.62;100.00;98589.63;4149315;28;20513;-47
2022/11/05 03:58:31;;;;;;;1.63;1.42;;;;;;;8.62;100.00;98586.91;4166798;28;20318;-49
2022/11/05 04:00:32;;;;;;;1.83;1.58;;;;;;;8.64;100.00;98595.66;4152133;28;20213;-47
2022/11/05 04:02:36;;;;;;;1.95;1.77;;;;;;;8.67;100.00;98589.72;4155240;28;20260;-50
2022/11/05 04:04:38;;;;;;;1.95;1.85;;;;;;;8.67;100.00;98592.47;4152633;28;20209;-50
2022/11/05 04:13:41;;;;;;;1.83;1.73;;;;;;;8.62;100.00;98592.34;4175232;28;21358;-49
2022/11/05 04:18:03;;;;;;;1.48;1.38;;;;;;;8.61;100.00;98601.59;4158918;28;20208;-50
2022/11/05 04:24:48;;;;;;;1.73;1.63;;;;;;;8.69;100.00;98601.25;4174932;28;20279;-50
2022/11/05 04:26:49;;;;;;;1.90;1.42;;;;;;;8.64;100.00;98606.56;4175497;28;20320;-49
2022/11/05 04:31:12;;;;;;;1.65;1.55;;;;;;;8.59;100.00;98598.25;4173113;28;20239;-49
2022/11/05 04:33:15;;;;;;;1.63;1.52;;;;;;;8.63;100.00;98597.56;4156354;28;20296;-49
2022/11/05 04:35:17;;;;;;;1.98;1.88;;;;;;;8.57;100.00;98600.41;4136701;28;20202;-48
2022/11/05 04:37:18;;;;;;;1.55;1.45;;;;;;;8.64;100.00;98609.31;4175933;28;21079;-49
2022/11/05 04:39:20;;;;;;;1.70;1.45;;;;;;;8.50;100.00;98616.03;4158096;28;20721;-50
2022/11/05 04:41:22;;;;;;;1.60;1.50;;;;;;;8.56;100.00;98615.13;4173539;28;20231;-49
2022/11/05 04:43:23;;;;;;;1.58;1.48;;;;;;;8.57;100.00;98611.31;4156179;28;20205;-51
2022/11/05 04:45:27;;;;;;;1.45;1.38;;;;;;;8.51;100.00;98617.69;4172607;28;20254;-49
2022/11/05 04:47:29;;;;;;;3.45;1.23;;;;;;;8.58;100.00;98612.97;4159295;28;20288;-49
2022/11/05 04:49:30;;;;;;;1.30;1.25;;;;;;;8.63;100.00;98621.28;4174182;28;20209;-49
2022/11/05 04:51:32;;;;;;;1.08;0.95;;;;;;;8.66;100.00;98620.81;4176052;28;20342;-49
2022/11/05 04:53:34;;;;;;;1.38;1.15;;;;;;;8.55;100.00;98625.19;4175663;28;20261;-49
2022/11/05 04:55:35;;;;;;;1.45;1.35;;;;;;;8.60;100.00;98629.91;4158987;28;20207;-48
2022/11/05 04:57:37;;;;;;;1.73;1.63;;;;;;;8.58;100.00;98618.44;4159029;28;20662;-49
2022/11/05 04:59:39;;;;;;;1.48;1.38;;;;;;;8.60;100.00;98622.59;4159057;28;20756;-48
2022/11/05 05:01:41;;;;;;;1.75;1.65;;;;;;;8.51;100.00;98624.00;4171256;28;20612;-49
2022/11/05 05:03:45;;;;;;;2.10;1.70;;;;;;;8.56;100.00;98620.56;4155726;28;20319;-50
2022/11/05 05:05:47;;;;;;;1.38;1.27;;;;;;;8.52;100.00;98616.63;4172630;28;20307;-49
2022/11/05 05:07:49;;;;;;;1.25;1.25;;;;;;;8.50;100.00;98632.41;4155011;28;20217;-49
2022/11/05 05:09:50;;;;;;;1.60;1.50;;;;;;;8.66;100.00;98631.72;4157355;28;20216;-49
2022/11/05 05:11:52;;;;;;;2.22;1.38;;;;;;;8.50;100.00;98629.69;4152229;28;20248;-48
2022/11/05 05:13:54;;;;;;;1.38;1.38;;;;;;;8.50;100.00;98638.69;4152133;28;20705;-50
2022/11/05 05:15:55;;;;;;;1.20;1.10;;;;;;;8.53;100.00;98642.84;4138263;28;20206;-50
2022/11/05 05:17:58;;;;;;;1.05;0.95;;;;;;;8.47;100.00;98649.22;4172623;28;20206;-48
2022/11/05 05:22:20;;;;;;;1.35;1.25;;;;;;;8.46;100.00;98648.41;4172906;28;20234;-49
2022/11/05 05:24:23;;;;;;;1.33;1.23;;;;;;;8.37;100.00;98652.53;4157029;28;20228;-50
2022/11/05 05:26:25;;;;;;;1.40;1.20;;;;;;;8.31;100.00;98652.63;4153239;28;20299;-49
2022/11/05 05:28:27;;;;;;;1.83;1.63;;;;;;;8.14;100.00;98652.41;4152901;28;20232;-49
2022/11/05 05:30:29;;;;;;;3.00;2.13;;;;;;;8.21;100.00;98660.53;4155165;28;20208;-50
2022/11/05 05:32:30;;;;;;;1.42;1.33;;;;;;;8.20;100.00;98661.59;4139499;28;20678;-50
2022/11/05 05:34:32;;;;;;;1.30;1.20;;;;;;;8.05;100.00;98656.53;4171138;28;20290;-49
2022/11/05 05:36:34;;;;;;;1.50;1.40;;;;;;;8.16;100.00;98669.34;4154153;28;20213;-49
2022/11/05 05:38:35;;;;;;;1.40;1.30;;;;;;;8.10;100.00;98670.28;4154566;28;20209;-49
2022/11/05 05:40:37;;;;;;;1.48;1.27;;;;;;;8.13;100.00;98669.84;4173703;28;20200;-49
2022/11/05 05:42:39;;;;;;;2.28;1.42;;;;;;;8.08;100.00;98677.88;4155446;28;20369;-50
2022/11/05 05:44:44;;;;;;;1.23;1.20;;;;;;;8.14;100.00;98678.81;4155642;28;20670;-49
2022/11/05 05:46:45;;;;;;;1.80;1.45;;;;;;;8.21;100.00;98676.91;4138967;28;20308;-49
2022/11/05 05:48:49;;;;;;;1.67;1.58;;;;;;;8.20;100.00;98677.94;4154782;28;20291;-49
2022/11/05 05:50:51;;;;;;;1.67;1.58;;;;;;;8.24;100.00;98677.28;4170140;28;20294;-49
2022/11/05 05:52:52;;;;;;;1.60;1.50;;;;;;;8.27;100.00;98675.94;4170945;28;20709;-50
2022/11/05 05:54:54;;;;;;;2.00;1.80;;;;;;;8.22;100.00;98675.84;4155899;28;20295;-50
2022/11/05 05:56:56;;;;;;;1.50;1.30;;;;;;;8.21;100.00;98682.34;4154220;28;20251;-49
2022/11/05 05:58:58;;;;;;;1.40;1.30;;;;;;;8.22;100.00;98679.38;4155524;28;20321;-51
2022/11/05 06:01:01;;;;;;;1.60;1.50;;;;;;;8.20;100.00;98686.13;4169744;28;20231;-48
2022/11/05 06:03:05;;;;;;;1.98;1.80;;;;;;;8.19;100.00;98679.84;4170821;28;20231;-50
2022/11/05 06:05:07;;;;;;;2.10;1.75;;;;;;;8.14;100.00;98687.00;4151520;28;20213;-49
2022/11/05 06:07:08;;;;;;;1.77;1.67;;;;;;;8.26;100.00;98693.38;4156186;28;20319;-50
2022/11/05 06:09:10;;;;;;;2.00;1.90;;;;;;;8.26;100.00;98701.53;4156271;28;20304;-49
2022/11/05 06:11:12;;;;;;;1.55;1.45;;;;;;;8.21;100.00;98698.72;4172083;28;20632;-49
2022/11/05 06:13:14;;;;;;;2.30;2.10;;;;;;;8.22;100.00;98703.09;4154243;28;20232;-49
2022/11/05 06:15:16;;;;;;;1.55;1.45;;;;;;;8.12;100.00;98708.22;4152651;28;20240;-49
2022/11/05 06:17:17;;;;;;;1.73;1.63;;;;;;;8.07;100.00;98708.06;4158233;28;20812;-51
2022/11/05 06:19:19;;;;;;;1.50;1.40;;;;;;;8.16;100.00;98701.25;4153461;28;21711;-50
2022/11/05 06:21:21;;;;;;;1.45;1.35;;;;;;;8.09;100.00;98704.03;4167553;28;20204;-51
2022/11/05 06:23:22;;;;;;;2.20;1.92;;;;;;;8.02;100.00;98706.03;4155381;28;20213;-50
2022/11/05 06:25:24;;;;;;;1.90;1.80;;;;;;;8.02;100.00;98705.22;4149582;28;20219;-49
2022/11/05 06:27:27;;;;;;;1.50;1.40;;;;;;;8.10;100.00;98707.63;4173504;28;21061;-49
2022/11/05 06:29:29;;;;;;;1.10;1.10;;;;;;;7.87;100.00;98721.09;4172467;28;20243;-49
2022/11/05 06:31:31;;;;;;;1.75;1.65;;;;;;;7.83;100.00;98714.47;4154766;28;20255;-48
2022/11/05 06:33:33;;;;;;;1.25;1.25;;;;;;;7.78;100.00;98727.91;4152049;28;20224;-49
2022/11/05 06:35:35;;;;;;;1.70;1.60;;;;;;;7.81;100.00;98730.22;4169203;28;20211;-48
2022/11/05 06:37:36;;;;;;;2.13;1.70;;;;;;;7.78;100.00;98734.22;4169423;28;20320;-49
2022/11/05 06:39:38;;;;;;;2.95;1.67;;;;;;;7.78;100.00;98736.09;4150875;28;20209;-49
2022/11/05 06:41:40;;;;;;;2.17;1.80;;;;;;;7.83;100.00;98728.06;4155824;28;20225;-50
2022/11/05 06:44:02;;;;;;;1.40;1.25;;;;;;;7.77;100.00;98739.88;4174335;28;20570;-49
2022/11/05 06:46:04;;;;;;;1.30;1.30;;;;;;;7.85;100.00;98736.84;4169188;28;20566;-49
2022/11/05 06:48:05;;;;;;;1.90;1.80;;;;;;;7.71;100.00;98746.22;4172633;28;20656;-50
2022/11/05 06:50:07;;;;;;;1.55;1.45;;;;;;;7.73;100.00;98749.56;4153056;28;20208;-51
2022/11/05 06:52:09;;;;;;;2.40;2.10;;;;;;;7.74;100.00;98751.22;4153749;28;20220;-48
2022/11/05 06:54:11;;;;;;;1.40;1.30;;;;;;;7.79;100.00;98754.09;4152919;28;20620;-48
2022/11/05 06:56:12;;;;;;;2.50;1.50;;;;;;;7.69;100.00;98756.53;4167875;28;20214;-48
2022/11/05 06:58:14;;;;;;;1.30;1.30;;;;;;;7.63;100.00;98755.50;4154803;28;20203;-48
2022/11/05 07:00:17;;;;;;;2.10;2.00;;;;;;;7.59;100.00;98765.22;4153934;28;20197;-51
2022/11/05 07:02:19;;;;;;;2.00;1.90;;;;;;;7.58;100.00;98768.16;4152816;28;20240;-49
2022/11/05 07:04:20;;;;;;;2.00;1.90;;;;;;;7.57;100.00;98771.94;4152549;28;20216;-49
2022/11/05 07:06:22;;;;;;;1.80;1.70;;;;;;;7.61;100.00;98775.91;4168282;28;20200;-50
2022/11/05 07:08:24;;;;;;;1.73;1.63;;;;;;;7.58;100.00;98781.78;4138645;28;20771;-48
2022/11/05 07:10:25;;;;;;;1.50;1.40;;;;;;;7.58;100.00;98785.34;4150362;28;20216;-49
2022/11/05 07:12:27;;;;;;;2.88;2.10;;;;;;;7.53;100.00;98781.59;4172105;28;20584;-49
2022/11/05 07:14:29;;;;;;;2.22;2.03;;;;;;;7.50;100.00;98787.50;4155406;28;20208;-48
2022/11/05 07:16:30;;;;;;;2.25;2.15;;;;;;;7.45;100.00;98793.63;4149058;28;20241;-49
2022/11/05 07:18:33;;;;;;;2.53;2.33;;;;;;;7.44;100.00;98788.41;4171715;28;20196;-48
2022/11/05 07:20:35;;;;;;;2.08;1.65;;;;;;;7.50;100.00;98801.13;4148708;28;20315;-49
2022/11/05 07:22:37;;;;;;;2.55;2.35;;;;;;;7.54;100.00;98799.59;4149827;28;20239;-49
2022/11/05 07:24:38;;;;;;;1.98;1.88;;;;;;;7.58;100.00;98806.28;4165617;28;20409;-49
2022/11/05 07:26:40;;;;;;;2.47;2.28;;;;;;;7.58;100.00;98807.13;4148233;28;20275;-49
2022/11/05 07:28:42;;;;;;;2.30;2.20;;;;;;;7.60;100.00;98805.00;4152597;28;20220;-48
2022/11/05 07:30:44;;;;;;;5.80;1.88;;;;;;;7.62;100.00;98802.06;4143234;28;20287;-49
2022/11/05 07:32:45;;;;;;;1.88;1.77;;;;;;;7.64;100.00;98811.69;4165093;28;20234;-50
2022/11/05 07:34:47;;;;;;;2.30;2.10;;;;;;;7.77;100.00;98802.53;4167360;28;20327;-48
2022/11/05 07:36:49;;;;;;;2.00;1.90;;;;;;;7.73;100.00;98814.91;4150382;28;20320;-50
2022/11/05 07:38:50;;;;;;;1.90;1.80;;;;;;;7.74;100.00;98819.31;4169869;28;20291;-49
2022/11/05 07:40:59;;;;;;;1.63;1.52;;;;;;;8.09;100.00;98820.41;4151521;28;20307;-49
2022/11/05 07:43:01;;;;;;;1.80;1.70;;;;;;;8.51;100.00;98820.34;4152202;28;20352;-49
2022/11/05 07:45:03;;;;;;;2.00;1.90;;;;;;;9.03;100.00;98824.25;4135628;28;20304;-50
2022/11/05 07:47:05;;;;;;;1.77;1.67;;;;;;;9.32;100.00;98828.81;4147945;28;20701;-48
2022/11/05 07:49:07;;;;;;;1.70;1.60;;;;;;;10.00;100.00;98828.03;4152161;28;20224;-49
2022/11/05 07:51:08;;;;;;;1.60;1.50;;;;;;;10.27;100.00;98833.88;4148485;28;20212;-50
2022/11/05 07:53:12;;;;;;;1.83;1.73;;;;;;;10.82;100.00;98823.00;4150464;28;20209;-49
2022/11/05 07:55:15;;;;;;;1.77;1.67;;;;;;;11.18;100.00;98821.78;4165787;28;20578;-49
2022/11/05 07:57:17;;;;;;;1.52;1.42;;;;;;;11.64;100.00;98827.00;4169301;28;20208;-49
2022/11/05 07:59:19;;;;;;;1.92;1.80;;;;;;;11.87;98.94;98827.66;4149698;28;22000;-50
2022/11/05 08:01:20;;;;;;;4.07;1.80;;;;;;;12.43;98.17;98832.84;4152995;28;20217;-49
2022/11/05 08:03:22;;;;;;;1.83;1.35;;;;;;;12.55;95.26;98830.81;4146870;28;20646;-50
2022/11/05 08:05:25;;;;;;;2.95;1.65;;;;;;;13.04;96.94;98835.28;4148950;28;20649;-49
2022/11/05 08:07:27;;;;;;;1.50;1.40;;;;;;;13.69;91.73;98837.88;4144858;28;20220;-49
2022/11/05 08:09:28;;;;;;;2.70;1.42;;;;;;;13.52;91.65;98832.50;4151105;28;20225;-49
2022/11/05 08:11:31;;;;;;;1.20;1.10;;;;;;;13.65;90.81;98832.06;4161837;28;20247;-48
2022/11/05 08:13:33;;;;;;;1.60;1.20;;;;;;;13.86;89.22;98838.53;4151089;28;20785;-48
2022/11/05 08:15:35;;;;;;;1.35;1.10;;;;;;;13.94;88.22;98841.66;4169204;28;20742;-48
2022/11/05 08:17:37;;;;;;;1.80;1.38;;;;;;;14.26;87.59;98849.88;4167931;28;20588;-48
2022/11/05 08:19:39;;;;;;;1.50;1.40;;;;;;;13.72;86.06;98849.19;4151211;28;20252;-49
2022/11/05 08:21:40;;;;;;;1.20;1.10;;;;;;;13.82;85.83;98838.25;4136097;28;20702;-49
2022/11/05 08:23:42;;;;;;;1.65;1.35;;;;;;;13.71;83.79;98843.94;4168570;28;20208;-49
2022/11/05 08:25:44;;;;;;;1.30;1.20;;;;;;;13.24;87.50;98852.00;4148015;28;20250;-48
2022/11/05 08:27:46;;;;;;;4.72;1.48;;;;;;;12.70;88.75;98844.72;4134032;28;20280;-48
2022/11/05 08:29:47;;;;;;;1.33;1.23;;;;;;;13.38;87.01;98846.91;4150678;28;20215;-49
2022/11/05 08:31:52;;;;;;;1.58;1.48;;;;;;;12.87;86.62;98848.25;4134227;28;20234;-48
2022/11/05 08:33:54;;;;;;;1.13;1.08;;;;;;;13.07;87.76;98845.78;4164600;28;20656;-48
2022/11/05 08:36:04;;;;;;;2.05;1.40;;;;;;;12.39;88.71;98853.66;4146227;28;20702;-48
2022/11/05 08:38:06;;;;;;;1.50;1.40;;;;;;;11.86;91.00;98856.16;4149982;28;20283;-49
2022/11/05 08:40:15;;;;;;;1.05;1.00;;;;;;;11.61;92.31;98866.69;4168658;28;20242;-47
2022/11/05 08:42:32;;;;;;;1.50;1.40;;;;;;;11.58;94.81;98856.22;4167476;28;20239;-48
2022/11/05 08:44:33;;;;;;;2.50;1.88;;;;;;;11.16;94.91;98863.09;4147308;28;20319;-47
2022/11/05 08:46:35;;;;;;;3.67;1.55;;;;;;;11.39;95.62;98870.38;4123952;28;20319;-49
2022/11/05 08:48:42;;;;;;;1.98;1.80;;;;;;;12.30;93.28;98862.59;4149285;28;20726;-48
2022/11/05 08:50:45;;;;;;;2.03;1.85;;;;;;;12.55;93.73;98869.25;4167292;28;20725;-49
2022/11/05 08:52:47;;;;;;;2.72;1.95;;;;;;;13.31;90.96;98871.84;4152940;28;20270;-48
2022/11/05 08:54:49;;;;;;;1.52;1.42;;;;;;;14.04;88.48;98871.97;4137164;28;20753;-48
2022/11/05 08:56:52;;;;;;;1.65;1.55;;;;;;;14.23;86.73;98884.25;4171831;28;20294;-48
2022/11/05 08:58:56;;;;;;;1.63;1.52;;;;;;;14.68;85.05;98879.06;4160985;28;20242;-48
2022/11/05 09:00:58;;;;;;;2.40;1.65;;;;;;;14.33;81.92;98884.34;4163132;28;20282;-48
2022/11/05 09:03:07;;;;;;;3.17;1.63;;;;;;;14.44;81.58;98885.25;4173264;28;20221;-48
2022/11/05 09:05:09;;;;;;;4.93;2.08;;;;;;;13.33;83.63;98886.19;4151488;28;20209;-48
2022/11/05 09:07:11;;;;;;;7.65;1.80;;;;;;;12.62;86.34;98889.13;4149252;28;20307;-48
2022/11/05 09:09:12;;;;;;;1.85;1.60;;;;;;;12.47;89.92;98893.56;4148868;28;20228;-49
2022/11/05 09:11:14;;;;;;;1.40;1.27;;;;;;;12.37;89.76;98883.25;4169978;28;20311;-48
2022/11/05 09:13:16;;;;;;;1.75;1.33;;;;;;;11.51;92.42;98888.41;4153011;28;20672;-48
2022/11/05 09:15:22;;;;;;;2.40;2.25;;;;;;;11.79;91.95;98885.66;4156818;28;20674;-49
2022/11/05 09:17:23;;;;;;;1.92;1.73;;;;;;;12.56;90.92;98889.31;4149700;28;20216;-49
2022/11/05 09:19:25;;;;;;;2.42;2.22;;;;;;;11.99;89.22;98894.22;4152025;28;20213;-51
2022/11/05 09:21:27;;;;;;;4.15;2.30;;;;;;;11.96;90.15;98896.63;4149836;28;20235;-47
2022/11/05 09:23:28;;;;;;;2.38;2.17;;;;;;;12.72;89.13;98893.91;4169998;28;20295;-46
2022/11/05 09:25:32;;;;;;;2.40;1.75;;;;;;;13.24;88.16;98895.16;4151282;28;20702;-46
2022/11/05 09:27:33;;;;;;;2.55;2.35;;;;;;;13.44;87.44;98893.44;4176070;28;20679;-46
2022/11/05 09:29:35;;;;;;;1.70;1.60;;;;;;;12.95;86.62;98891.78;4156738;28;20236;-47
2022/11/05 09:31:39;;;;;;;1.95;1.55;;;;;;;12.55;89.78;98891.22;4169951;28;20290;-46
2022/11/05 09:33:41;;;;;;;1.63;1.52;;;;;;;13.13;89.15;98894.19;4152397;28;20204;-47
2022/11/05 09:35:43;;;;;;;2.20;1.63;;;;;;;13.53;86.34;98904.81;4154699;28;20204;-46
2022/11/05 09:37:45;;;;;;;2.67;1.58;;;;;;;13.98;85.21;98897.78;4156264;28;20310;-47
2022/11/05 09:39:46;;;;;;;1.65;1.45;;;;;;;14.27;84.00;98912.09;4172214;28;20781;-47
2022/11/05 09:41:49;;;;;;;1.90;1.70;;;;;;;14.59;83.44;98910.13;4154831;28;21085;-47
2022/11/05 09:43:54;;;;;;;1.63;1.35;;;;;;;14.36;81.31;98919.59;4152814;28;20380;-47
2022/11/05 09:45:57;;;;;;;2.15;1.95;;;;;;;14.47;83.07;98918.59;4150815;28;20208;-47
2022/11/05 09:48:04;;;;;;;3.70;1.40;;;;;;;14.39;80.77;98916.34;4173799;28;20285;-46
2022/11/05 09:50:11;;;;;;;2.60;1.33;;;;;;;14.39;82.50;98915.50;4158996;28;20259;-46
2022/11/05 09:52:39;;;;;;;6.70;1.45;;;;;;;14.92;80.75;98921.63;4141152;28;20225;-47
2022/11/05 09:54:41;;;;;;;1.40;1.30;;;;;;;15.29;78.15;98927.84;4150363;28;20239;-47
2022/11/05 09:56:42;;;;;;;1.70;1.45;;;;;;;15.28;79.89;98926.19;4169740;28;20661;-47
2022/11/05 09:58:49;;;;;;;2.20;1.35;;;;;;;15.20;78.62;98921.19;4154922;28;20291;-47
2022/11/05 10:00:51;;;;;;;3.92;1.40;;;;;;;15.47;76.88;98924.63;4172162;28;20212;-46
2022/11/05 10:03:02;;;;;;;3.90;1.73;;;;;;;15.54;78.06;98930.72;4154609;28;20282;-47
2022/11/05 10:05:07;;;;;;;3.17;1.38;;;;;;;15.59;75.55;98927.13;4171881;28;20397;-47
2022/11/05 10:07:14;;;;;;;2.15;1.38;;;;;;;15.10;76.41;98929.41;4157324;28;20212;-46
2022/11/05 10:09:30;;;;;;;1.65;1.55;;;;;;;15.16;76.29;98933.84;4170210;28;20250;-46
2022/11/05 10:11:40;;;;;;;2.67;1.50;;;;;;;14.93;77.48;98939.81;4171153;28;20246;-47
2022/11/05 10:14:26;;;;;;;2.63;2.42;;;;;;;14.98;79.16;98937.09;4170586;28;20231;-47
2022/11/05 10:16:50;;;;;;;2.95;1.40;;;;;;;14.30;81.53;98934.41;4149028;28;20205;-47
2022/11/05 10:19:01;;;;;;;1.40;1.30;;;;;;;13.80;81.10;98936.72;4170890;28;20254;-46
2022/11/05 10:21:03;;;;;;;1.95;1.75;;;;;;;13.54;83.03;98939.44;4154223;28;20311;-48
2022/11/05 10:23:15;;;;;;;2.40;2.20;;;;;;;13.97;80.88;98939.34;4168135;28;20266;-47
2022/11/05 10:25:19;;;;;;;2.20;2.00;;;;;;;14.39;84.73;98940.28;4153990;28;20291;-46
2022/11/05 10:27:32;;;;;;;2.80;2.47;;;;;;;15.00;80.67;98934.03;4150743;28;20323;-47
2022/11/05 10:29:34;;;;;;;2.25;2.05;;;;;;;14.70;78.80;98945.72;4169754;28;20717;-47
2022/11/05 10:31:36;;;;;;;1.90;1.75;;;;;;;14.74;77.61;98941.34;4173326;28;20315;-47